createdAt,value
2022-10-04T00:01:10.846Z,3.20
2022-10-04T00:03:46.147Z,3.03
2022-10-04T00:06:19.831Z,3.70
2022-10-04T00:08:52.911Z,2.90
2022-10-04T00:11:27.573Z,2.83
2022-10-04T00:14:00.141Z,3.60
2022-10-04T00:16:35.492Z,3.40
2022-10-04T00:19:26.482Z,2.83
2022-10-04T00:22:17.359Z,3.17
2022-10-04T00:25:23.163Z,2.63
2022-10-04T00:28:31.350Z,3.57
2022-10-04T00:31:19.686Z,3.50
2022-10-04T00:33:54.594Z,3.77
2022-10-04T00:36:41.754Z,2.77
2022-10-04T00:39:39.174Z,2.40
2022-10-04T00:42:21.724Z,2.50
2022-10-04T00:44:56.351Z,2.93
2022-10-04T00:47:32.026Z,3.10
2022-10-04T00:50:17.078Z,3.30
2022-10-04T00:52:51.707Z,3.40
2022-10-04T00:55:28.977Z,3.10
2022-10-04T00:58:02.414Z,2.50
2022-10-04T01:00:33.686Z,2.90
2022-10-04T01:03:08.050Z,3.10
2022-10-04T01:05:44.252Z,3.07
2022-10-04T01:08:16.553Z,2.30
2022-10-04T01:10:50.323Z,3.43
2022-10-04T01:13:26.627Z,3.07
2022-10-04T01:16:02.702Z,3.50
2022-10-04T01:18:34.911Z,2.60
2022-10-04T01:21:11.608Z,3.03
2022-10-04T01:23:46.210Z,3.20
2022-10-04T01:26:43.760Z,3.43
2022-10-04T01:29:16.916Z,2.80
2022-10-04T01:31:48.769Z,2.80
2022-10-04T01:34:20.703Z,2.87
2022-10-04T01:36:52.637Z,3.57
2022-10-04T01:39:27.615Z,3.23
2022-10-04T01:42:03.204Z,3.03
2022-10-04T01:44:39.714Z,3.20
2022-10-04T01:47:16.066Z,3.60
2022-10-04T01:49:48.583Z,2.73
2022-10-04T01:52:23.082Z,4.13
2022-10-04T01:55:03.596Z,3.60
2022-10-04T01:57:40.092Z,3.30
2022-10-04T02:00:14.353Z,2.90
2022-10-04T02:02:51.655Z,3.27
2022-10-04T02:05:29.894Z,3.63
2022-10-04T02:08:05.045Z,3.00
2022-10-04T02:10:43.412Z,2.63
2022-10-04T02:13:18.616Z,3.33
2022-10-04T02:15:49.435Z,2.50
2022-10-04T02:18:21.822Z,3.20
2022-10-04T02:20:53.967Z,2.90
2022-10-04T02:23:25.371Z,3.20
2022-10-04T02:25:57.951Z,3.20
2022-10-04T02:28:27.971Z,2.77
2022-10-04T02:31:10.384Z,3.00
2022-10-04T02:33:44.181Z,3.27
2022-10-04T02:36:14.649Z,3.30
2022-10-04T02:38:48.296Z,3.90
2022-10-04T02:41:29.751Z,2.97
2022-10-04T02:44:05.893Z,3.10
2022-10-04T02:46:39.494Z,3.73
2022-10-04T02:49:19.140Z,3.70
2022-10-04T02:51:54.383Z,4.20
2022-10-04T02:54:33.739Z,4.30
2022-10-04T02:57:06.520Z,4.80
2022-10-04T02:59:36.798Z,4.23
2022-10-04T03:02:29.068Z,3.93
2022-10-04T03:05:07.584Z,3.73
2022-10-04T03:07:38.972Z,3.50
2022-10-04T03:10:12.076Z,3.90
2022-10-04T03:12:45.153Z,3.40
2022-10-04T03:15:15.690Z,3.90
2022-10-04T03:17:46.897Z,4.00
2022-10-04T03:20:21.303Z,4.00
2022-10-04T03:22:56.065Z,3.80
2022-10-04T03:25:31.595Z,3.70
2022-10-04T03:28:05.784Z,4.00
2022-10-04T03:30:37.297Z,4.73
2022-10-04T03:33:08.238Z,4.63
2022-10-04T03:35:40.610Z,4.80
2022-10-04T03:38:14.147Z,4.80
2022-10-04T03:40:51.699Z,4.00
2022-10-04T03:43:27.495Z,3.80
2022-10-04T03:45:58.434Z,4.13
2022-10-04T03:48:37.979Z,3.87
2022-10-04T03:51:10.544Z,4.10
2022-10-04T03:53:43.431Z,4.50
2022-10-04T03:56:16.058Z,4.40
2022-10-04T03:58:49.275Z,4.03
2022-10-04T04:01:29.549Z,4.07
2022-10-04T04:04:05.686Z,3.90
2022-10-04T04:06:43.241Z,4.17
2022-10-04T04:09:23.991Z,4.00
2022-10-04T04:11:57.874Z,4.20
2022-10-04T04:14:31.045Z,3.43
2022-10-04T04:17:21.461Z,4.37
2022-10-04T04:19:51.261Z,3.73
2022-10-04T04:22:21.910Z,3.70
2022-10-04T04:24:52.429Z,4.17
2022-10-04T04:27:29.016Z,4.23
2022-10-04T04:30:04.156Z,3.57
2022-10-04T04:32:40.274Z,3.40
2022-10-04T04:35:25.114Z,3.70
2022-10-04T04:38:24.297Z,4.40
2022-10-04T04:40:55.799Z,3.20
2022-10-04T04:43:29.427Z,4.20
2022-10-04T04:46:26.210Z,4.30
2022-10-04T04:48:57.198Z,3.70
2022-10-04T04:51:27.790Z,4.40
2022-10-04T04:53:59.304Z,3.70
2022-10-04T04:56:32.952Z,3.80
2022-10-04T04:59:06.629Z,4.83
2022-10-04T05:01:45.000Z,3.70
2022-10-04T05:04:21.386Z,4.20
2022-10-04T05:07:02.263Z,3.33
2022-10-04T05:09:34.461Z,4.07
2022-10-04T05:12:11.308Z,3.57
2022-10-04T05:14:43.800Z,4.00
2022-10-04T05:17:23.034Z,3.73
2022-10-04T05:19:54.101Z,4.43
2022-10-04T05:22:26.883Z,3.77
2022-10-04T05:25:00.099Z,3.90
2022-10-04T05:27:33.371Z,4.57
2022-10-04T05:30:09.649Z,3.57
2022-10-04T05:32:51.460Z,3.80
2022-10-04T05:35:23.476Z,4.17
2022-10-04T05:38:05.123Z,4.70
2022-10-04T05:40:46.414Z,3.97
2022-10-04T05:43:34.784Z,3.93
2022-10-04T05:46:20.739Z,4.07
2022-10-04T05:48:56.952Z,3.83
2022-10-04T05:51:30.580Z,4.20
2022-10-04T05:54:02.802Z,4.67
2022-10-04T05:57:11.122Z,4.57
2022-10-04T06:00:03.351Z,4.10
2022-10-04T06:03:14.628Z,4.20
2022-10-04T06:05:52.787Z,4.63
2022-10-04T06:08:33.955Z,4.70
2022-10-04T06:11:17.662Z,4.63
2022-10-04T06:14:03.226Z,4.63
2022-10-04T06:16:56.610Z,5.07
2022-10-04T06:19:48.252Z,4.63
2022-10-04T06:22:23.385Z,3.53
2022-10-04T06:24:59.671Z,4.33
2022-10-04T06:27:36.074Z,5.17
2022-10-04T06:30:09.863Z,4.43
2022-10-04T06:32:56.251Z,4.77
2022-10-04T06:35:53.139Z,4.03
2022-10-04T06:38:50.958Z,5.33
2022-10-04T06:42:02.043Z,3.80
2022-10-04T06:44:51.449Z,3.90
2022-10-04T06:47:34.374Z,4.23
2022-10-04T06:50:22.827Z,4.90
2022-10-04T06:53:16.630Z,4.63
2022-10-04T06:56:22.073Z,4.27
2022-10-04T06:59:25.407Z,5.27
2022-10-04T07:02:00.039Z,4.57
2022-10-04T07:05:06.323Z,4.67
2022-10-04T07:07:38.803Z,5.17
2022-10-04T07:10:24.508Z,5.00
2022-10-04T07:13:07.289Z,4.90
2022-10-04T07:15:48.078Z,4.40
2022-10-04T07:18:26.973Z,4.80
2022-10-04T07:21:07.864Z,4.70
2022-10-04T07:23:43.113Z,3.90
2022-10-04T07:26:23.985Z,4.57
2022-10-04T07:29:09.454Z,5.27
2022-10-04T07:31:45.515Z,4.73
2022-10-04T07:34:21.088Z,4.57
2022-10-04T07:36:55.844Z,5.50
2022-10-04T07:39:30.725Z,5.10
2022-10-04T07:42:09.951Z,5.53
2022-10-04T07:44:43.604Z,5.20
2022-10-04T07:47:22.348Z,5.07
2022-10-04T07:49:54.075Z,4.80
2022-10-04T07:52:40.925Z,4.50
2022-10-04T07:55:21.450Z,4.80
2022-10-04T07:58:00.921Z,4.40
2022-10-04T08:00:39.623Z,4.67
2022-10-04T08:03:35.019Z,4.73
2022-10-04T08:06:17.605Z,3.60
2022-10-04T08:09:06.259Z,4.27
2022-10-04T08:11:50.150Z,4.57
2022-10-04T08:14:30.382Z,4.57
2022-10-04T08:17:20.017Z,4.30
2022-10-04T08:20:05.118Z,4.80
2022-10-04T08:22:45.716Z,4.40
2022-10-04T08:25:24.758Z,5.00
2022-10-04T08:28:18.669Z,5.43
2022-10-04T08:31:09.933Z,4.93
2022-10-04T08:33:59.169Z,4.67
2022-10-04T08:36:47.366Z,4.70
2022-10-04T08:39:44.756Z,5.10
2022-10-04T08:42:57.414Z,4.70
2022-10-04T08:46:10.063Z,5.17
2022-10-04T08:49:29.609Z,4.60
2022-10-04T08:52:32.049Z,4.17
2022-10-04T08:55:32.294Z,5.60
2022-10-04T08:58:18.453Z,4.83
2022-10-04T09:01:19.939Z,5.27
2022-10-04T09:04:32.014Z,4.27
2022-10-04T09:07:16.587Z,4.60
2022-10-04T09:10:24.229Z,5.10
2022-10-04T09:13:15.163Z,4.80
2022-10-04T09:15:56.684Z,4.40
2022-10-04T09:18:55.023Z,4.90
2022-10-04T09:21:38.238Z,4.33
2022-10-04T09:24:33.478Z,4.40
2022-10-04T09:27:43.274Z,4.43
2022-10-04T09:30:22.468Z,4.73
2022-10-04T09:33:18.040Z,4.93
2022-10-04T09:36:15.496Z,5.27
2022-10-04T09:39:31.178Z,5.17
2022-10-04T09:42:33.676Z,5.00
2022-10-04T09:45:28.055Z,5.73
2022-10-04T09:48:11.815Z,4.90
2022-10-04T09:51:11.356Z,4.77
2022-10-04T09:54:02.907Z,3.83
2022-10-04T09:56:53.294Z,3.77
2022-10-04T09:59:53.223Z,4.13
2022-10-04T10:02:59.394Z,4.40
2022-10-04T10:05:58.360Z,4.50
2022-10-04T10:08:37.899Z,4.07
2022-10-04T10:11:31.601Z,3.60
2022-10-04T10:14:38.446Z,3.60
2022-10-04T10:17:18.482Z,3.90
2022-10-04T10:20:16.773Z,3.43
2022-10-04T10:23:09.255Z,3.50
2022-10-04T10:25:53.557Z,4.30
2022-10-04T10:28:43.435Z,4.03
2022-10-04T10:31:31.369Z,4.60
2022-10-04T10:34:33.048Z,3.40
2022-10-04T10:37:15.536Z,3.50
2022-10-04T10:40:28.921Z,4.40
2022-10-04T10:43:22.524Z,3.80
2022-10-04T10:46:07.308Z,5.60
2022-10-04T10:48:55.423Z,4.73
2022-10-04T10:51:54.211Z,4.67
2022-10-04T10:54:52.635Z,3.90
2022-10-04T10:57:47.786Z,4.13
2022-10-04T11:00:24.128Z,3.97
2022-10-04T11:03:22.994Z,3.70
2022-10-04T11:06:38.915Z,3.90
2022-10-04T11:09:41.371Z,3.20
2022-10-04T11:12:55.391Z,2.87
2022-10-04T11:15:44.582Z,3.33
2022-10-04T11:18:45.321Z,3.73
2022-10-04T11:21:54.357Z,3.00
2022-10-04T11:24:45.066Z,2.97
2022-10-04T11:27:28.610Z,2.70
2022-10-04T11:30:17.331Z,2.00
2022-10-04T11:33:28.984Z,1.87
2022-10-04T11:36:25.978Z,2.30
2022-10-04T11:39:50.167Z,2.63
2022-10-04T11:42:38.404Z,2.67
2022-10-04T11:45:44.010Z,2.50
2022-10-04T11:48:32.292Z,1.93
2022-10-04T11:51:20.941Z,2.20
2022-10-04T11:54:18.170Z,3.70
2022-10-04T11:57:12.280Z,3.23
2022-10-04T11:59:52.395Z,2.90
2022-10-04T12:03:09.434Z,2.90
2022-10-04T12:06:11.150Z,2.10
2022-10-04T12:08:55.946Z,2.17
2022-10-04T12:12:10.866Z,2.50
2022-10-04T12:14:54.178Z,2.47
2022-10-04T12:17:55.792Z,2.03
2022-10-04T12:20:56.919Z,2.50
2022-10-04T12:23:57.374Z,3.27
2022-10-04T12:26:57.667Z,2.40
2022-10-04T12:30:03.146Z,3.93
2022-10-04T12:32:39.335Z,3.07
2022-10-04T12:35:23.177Z,2.87
2022-10-04T12:38:33.570Z,2.70
2022-10-04T12:41:13.739Z,2.70
2022-10-04T12:43:57.296Z,2.70
2022-10-04T12:46:40.969Z,3.23
2022-10-04T12:49:25.854Z,2.30
2022-10-04T12:52:01.855Z,2.60
2022-10-04T12:54:47.509Z,2.90
2022-10-04T12:57:31.399Z,2.80
2022-10-04T13:00:07.980Z,2.63
2022-10-04T13:03:05.209Z,2.67
2022-10-04T13:05:44.058Z,2.27
2022-10-04T13:08:25.158Z,2.97
2022-10-04T13:11:11.719Z,2.23
2022-10-04T13:14:01.554Z,2.40
2022-10-04T13:19:41.392Z,2.83
2022-10-04T13:22:55.324Z,2.20
2022-10-04T13:25:47.083Z,2.67
2022-10-04T13:28:32.041Z,2.40
2022-10-04T13:31:07.090Z,2.60
2022-10-04T13:33:46.530Z,2.60
2022-10-04T13:36:26.891Z,2.50
2022-10-04T13:39:24.940Z,2.80
2022-10-04T13:42:12.593Z,3.00
2022-10-04T13:44:58.956Z,2.33
2022-10-04T13:47:49.178Z,3.43
2022-10-04T13:50:44.135Z,3.00
2022-10-04T13:53:49.561Z,2.63
2022-10-04T13:56:49.462Z,2.90
2022-10-04T13:59:34.598Z,2.90
2022-10-04T14:02:47.808Z,2.80
2022-10-04T14:05:56.403Z,2.37
2022-10-04T14:08:54.784Z,3.30
2022-10-04T14:11:46.256Z,2.70
2022-10-04T14:14:43.007Z,3.47
2022-10-04T14:17:52.961Z,2.63
2022-10-04T14:20:58.086Z,2.73
2022-10-04T14:24:02.758Z,2.50
2022-10-04T14:27:04.473Z,2.87
2022-10-04T14:30:08.077Z,2.23
2022-10-04T14:33:10.590Z,3.00
2022-10-04T14:35:48.005Z,1.80
2022-10-04T14:38:57.589Z,2.27
2022-10-04T14:41:59.327Z,1.93
2022-10-04T14:45:04.830Z,2.00
2022-10-04T14:48:04.549Z,2.27
2022-10-04T14:50:48.142Z,1.93
2022-10-04T14:53:27.655Z,1.67
2022-10-04T14:56:14.716Z,2.10
2022-10-04T14:59:01.663Z,1.90
2022-10-04T15:01:36.195Z,1.97
2022-10-04T15:04:19.627Z,2.70
2022-10-04T15:06:53.535Z,2.40
2022-10-04T15:09:34.159Z,2.03
2022-10-04T15:12:52.050Z,2.40
2022-10-04T15:15:36.573Z,2.03
2022-10-04T15:18:26.388Z,2.10
2022-10-04T15:21:01.643Z,1.83
2022-10-04T15:23:38.819Z,2.47
2022-10-04T15:26:26.401Z,2.07
2022-10-04T15:29:07.891Z,2.07
2022-10-04T15:31:52.858Z,2.43
2022-10-04T15:34:38.820Z,2.10
2022-10-04T15:37:25.445Z,1.83
2022-10-04T15:40:27.227Z,1.70
2022-10-04T15:43:12.359Z,2.47
2022-10-04T15:46:02.892Z,2.10
2022-10-04T15:48:51.878Z,2.23
2022-10-04T15:51:46.351Z,2.37
2022-10-04T15:54:44.719Z,2.37
2022-10-04T15:57:32.792Z,2.03
2022-10-04T16:00:15.431Z,2.20
2022-10-04T16:03:02.001Z,2.43
2022-10-04T16:05:40.188Z,2.83
2022-10-04T16:08:31.920Z,2.17
2022-10-04T16:11:27.691Z,2.30
2022-10-04T16:14:17.314Z,2.37
2022-10-04T16:17:14.485Z,2.83
2022-10-04T16:20:01.134Z,2.70
2022-10-04T16:22:32.923Z,2.47
2022-10-04T16:25:41.788Z,2.17
2022-10-04T16:28:25.827Z,2.17
2022-10-04T16:31:30.264Z,2.30
2022-10-04T16:34:07.208Z,2.30
2022-10-04T16:36:49.892Z,3.70
2022-10-04T16:39:49.721Z,2.53
2022-10-04T16:42:25.983Z,2.67
2022-10-04T16:45:02.745Z,2.57
2022-10-04T16:47:38.435Z,3.03
2022-10-04T16:50:14.109Z,2.10
2022-10-04T16:53:05.515Z,3.30
2022-10-04T16:55:53.916Z,4.30
2022-10-04T16:58:54.551Z,3.50
2022-10-04T17:02:00.374Z,5.30
2022-10-04T17:05:01.980Z,3.83
2022-10-04T17:07:45.709Z,3.40
2022-10-04T17:10:34.974Z,4.50
2022-10-04T17:13:23.591Z,4.50
2022-10-04T17:16:05.464Z,6.10
2022-10-04T17:18:47.156Z,6.07
2022-10-04T17:21:36.025Z,6.80
2022-10-04T17:24:22.702Z,8.87
2022-10-04T17:27:07.056Z,8.50
2022-10-04T17:29:51.635Z,7.80
2022-10-04T17:32:30.223Z,11.87
2022-10-04T17:35:16.617Z,8.93
2022-10-04T17:38:00.947Z,6.93
2022-10-04T17:40:46.167Z,6.00
2022-10-04T17:43:25.791Z,5.53
2022-10-04T17:46:09.716Z,4.07
2022-10-04T17:49:00.366Z,5.20
2022-10-04T17:51:56.656Z,5.10
2022-10-04T17:54:48.219Z,4.70
2022-10-04T17:57:30.957Z,5.30
2022-10-04T18:00:11.491Z,5.20
2022-10-04T18:03:19.408Z,5.13
2022-10-04T18:05:55.442Z,5.30
2022-10-04T18:08:44.757Z,5.20
2022-10-04T18:11:29.620Z,4.57
2022-10-04T18:14:05.358Z,5.53
2022-10-04T18:16:50.098Z,5.00
2022-10-04T18:19:40.188Z,4.83
2022-10-04T18:22:16.845Z,4.43
2022-10-04T18:24:48.308Z,5.20
2022-10-04T18:27:24.508Z,4.73
2022-10-04T18:30:10.628Z,4.37
2022-10-04T18:32:41.964Z,4.37
2022-10-04T18:35:26.741Z,4.20
2022-10-04T18:37:58.180Z,3.90
2022-10-04T18:40:34.895Z,4.63
2022-10-04T18:43:27.910Z,5.00
2022-10-04T18:46:04.494Z,5.17
2022-10-04T18:48:41.999Z,4.10
2022-10-04T18:51:27.097Z,5.40
2022-10-04T18:54:12.172Z,4.00
2022-10-04T18:56:53.025Z,4.60
2022-10-04T18:59:49.850Z,4.20
2022-10-04T19:02:31.379Z,4.63
2022-10-04T19:05:15.726Z,4.30
2022-10-04T19:07:52.810Z,3.90
2022-10-04T19:10:34.704Z,5.07
2022-10-04T19:13:23.279Z,5.57
2022-10-04T19:16:23.554Z,4.90
2022-10-04T19:19:04.319Z,5.37
2022-10-04T19:21:46.406Z,4.43
2022-10-04T19:24:37.265Z,4.33
2022-10-04T19:27:14.024Z,4.83
2022-10-04T19:29:59.632Z,5.27
2022-10-04T19:32:45.256Z,4.83
2022-10-04T19:35:29.096Z,5.03
2022-10-04T19:38:08.867Z,4.50
2022-10-04T19:40:48.622Z,4.40
2022-10-04T19:43:25.434Z,5.10
2022-10-04T19:46:11.791Z,4.40
2022-10-04T19:48:50.020Z,5.03
2022-10-04T19:51:29.935Z,5.47
2022-10-04T19:54:06.472Z,5.77
2022-10-04T19:56:42.785Z,4.83
2022-10-04T19:59:22.026Z,6.00
2022-10-04T20:01:53.129Z,4.47
2022-10-04T20:04:39.039Z,4.70
2022-10-04T20:07:23.654Z,4.73
2022-10-04T20:09:57.338Z,5.10
2022-10-04T20:12:40.236Z,5.07
2022-10-04T20:15:27.752Z,5.17
2022-10-04T20:17:59.040Z,4.80
2022-10-04T20:21:11.386Z,5.23
2022-10-04T20:23:56.680Z,4.77
2022-10-04T20:27:03.453Z,4.93
2022-10-04T20:30:08.835Z,5.00
2022-10-04T20:33:01.164Z,4.60
2022-10-04T20:36:09.764Z,5.00
2022-10-04T20:38:59.465Z,5.10
2022-10-04T20:41:59.121Z,4.83
2022-10-04T20:44:54.327Z,5.10
2022-10-04T20:47:40.925Z,5.60
2022-10-04T20:50:31.321Z,5.07
2022-10-04T20:53:06.095Z,5.30
2022-10-04T20:55:40.351Z,5.10
2022-10-04T20:58:28.427Z,4.50
2022-10-04T21:01:02.684Z,4.90
2022-10-04T21:03:33.578Z,5.10
2022-10-04T21:06:06.392Z,4.67
2022-10-04T21:08:37.648Z,4.40
2022-10-04T21:11:18.302Z,4.67
2022-10-04T21:13:56.516Z,5.00
2022-10-04T21:16:45.791Z,4.63
2022-10-04T21:19:47.467Z,4.37
2022-10-04T21:22:39.580Z,4.67
2022-10-04T21:25:32.110Z,5.07
2022-10-04T21:28:32.018Z,5.00
2022-10-04T21:31:06.605Z,4.60
2022-10-04T21:33:37.542Z,4.33
2022-10-04T21:36:08.743Z,4.27
2022-10-04T21:38:38.991Z,4.00
2022-10-04T21:41:09.260Z,4.50
2022-10-04T21:43:38.991Z,4.50
2022-10-04T21:46:12.249Z,4.90
2022-10-04T21:48:44.056Z,4.37
2022-10-04T21:51:13.767Z,4.77
2022-10-04T21:53:43.510Z,3.97
2022-10-04T21:56:13.230Z,4.10
2022-10-04T21:58:42.908Z,4.67
2022-10-04T22:01:15.438Z,4.10
2022-10-04T22:03:45.198Z,4.03
2022-10-04T22:06:15.023Z,4.43
2022-10-04T22:08:45.540Z,4.53
2022-10-04T22:11:15.866Z,4.50
2022-10-04T22:13:46.824Z,3.93
2022-10-04T22:16:19.185Z,3.60
2022-10-04T22:18:48.948Z,4.30
2022-10-04T22:21:18.656Z,3.57
2022-10-04T22:23:48.390Z,4.23
2022-10-04T22:26:19.860Z,4.30
2022-10-04T22:28:51.801Z,4.20
2022-10-04T22:31:28.178Z,4.40
2022-10-04T22:33:59.015Z,4.70
2022-10-04T22:36:40.118Z,4.30
2022-10-04T22:39:16.582Z,4.10
2022-10-04T22:41:48.832Z,4.10
2022-10-04T22:44:21.840Z,4.97
2022-10-04T22:46:55.620Z,4.50
2022-10-04T22:49:28.170Z,4.63
2022-10-04T22:52:00.139Z,4.60
2022-10-04T22:54:33.227Z,5.13
2022-10-04T22:57:03.059Z,4.97
2022-10-04T22:59:37.587Z,4.70
2022-10-04T23:02:16.130Z,4.33
2022-10-04T23:04:48.232Z,4.73
2022-10-04T23:07:18.024Z,4.30
2022-10-04T23:09:47.758Z,4.07
2022-10-04T23:12:17.707Z,5.30
2022-10-04T23:14:47.398Z,4.70
2022-10-04T23:17:26.167Z,5.30
2022-10-04T23:19:59.443Z,4.70
2022-10-04T23:22:31.630Z,4.67
2022-10-04T23:25:01.773Z,4.83
2022-10-04T23:27:32.013Z,4.30
2022-10-04T23:30:05.405Z,4.30
2022-10-04T23:32:37.774Z,4.43
2022-10-04T23:35:16.327Z,4.90
2022-10-04T23:37:46.067Z,5.23
2022-10-04T23:40:20.468Z,4.40
2022-10-04T23:42:53.715Z,4.30
2022-10-04T23:45:25.576Z,4.60
2022-10-04T23:48:01.035Z,4.83
2022-10-04T23:50:33.889Z,4.50
2022-10-04T23:53:06.582Z,4.93
2022-10-04T23:55:38.889Z,4.77
2022-10-04T23:58:17.344Z,4.83
